createdAt,value
2018-06-14T19:38:20.762Z,25.4
2018-06-14T19:39:10.531Z,25.4
2018-06-14T19:40:01.048Z,25.4
2018-06-14T19:40:50.958Z,25.4
2018-06-14T19:41:41.024Z,25.4
2018-06-14T19:42:31.073Z,25.4
2018-06-14T19:43:21.136Z,25.4
2018-06-14T19:44:11.229Z,25.4
2018-06-14T19:45:00.997Z,25.4
2018-06-14T19:45:51.380Z,25.4
2018-06-14T19:46:41.403Z,25.4
2018-06-14T19:47:31.182Z,25.4
2018-06-14T19:48:21.253Z,25.4
2018-06-14T19:49:11.609Z,25.4
2018-06-14T19:50:01.691Z,25.4
2018-06-14T19:50:51.742Z,25.4
2018-06-14T19:51:41.506Z,25.4
2018-06-14T19:52:31.866Z,25.4
2018-06-14T19:53:21.624Z,25.4
2018-06-14T19:54:12.021Z,25.4
2018-06-14T19:55:02.073Z,25.4
2018-06-14T19:55:52.117Z,25.4
2018-06-14T19:56:42.227Z,25.4
2018-06-14T19:57:32.286Z,25.4
2018-06-14T19:58:22.301Z,25.4
2018-06-14T19:59:12.362Z,25.4
2018-06-14T20:00:02.449Z,25.4
2018-06-14T20:00:52.534Z,25.4
2018-06-14T20:01:42.558Z,25.4
2018-06-14T20:02:32.635Z,25.4
2018-06-14T20:03:22.465Z,25.4
2018-06-14T20:04:12.775Z,25.4
2018-06-14T20:05:02.825Z,25.4
2018-06-14T20:05:52.620Z,25.4
2018-06-14T20:06:42.958Z,25.4
2018-06-14T20:07:32.732Z,25.4
2018-06-14T20:08:23.092Z,25.4
2018-06-14T20:09:13.159Z,25.4
2018-06-14T20:10:02.939Z,25.3
2018-06-14T20:10:53.290Z,25.3
2018-06-14T20:11:43.345Z,25.3
2018-06-14T20:12:33.407Z,25.3
2018-06-14T20:13:23.472Z,25.3
2018-06-14T20:14:13.553Z,25.3
2018-06-14T20:15:03.617Z,25.3
2018-06-14T20:15:53.662Z,25.3
2018-06-14T20:16:43.733Z,25.3
2018-06-14T20:17:33.807Z,25.3
2018-06-14T20:18:23.877Z,25.3
2018-06-14T20:19:13.651Z,25.3
2018-06-14T20:20:03.990Z,25.3
2018-06-14T20:20:54.281Z,25.3
2018-06-14T20:21:43.857Z,25.3
2018-06-14T20:22:34.210Z,25.3
2018-06-14T20:23:24.251Z,25.3
2018-06-14T20:24:14.337Z,25.3
2018-06-14T20:25:04.102Z,25.3
2018-06-14T20:25:54.457Z,25.3
2018-06-14T20:26:44.233Z,25.3
2018-06-14T20:27:34.577Z,25.3
2018-06-14T20:28:24.373Z,25.3
2018-06-14T20:29:14.724Z,25.3
2018-06-14T20:30:04.790Z,25.3
2018-06-14T20:30:54.837Z,25.3
2018-06-14T20:31:44.914Z,25.3
2018-06-14T20:32:34.975Z,25.3
2018-06-14T20:33:25.032Z,25.3
2018-06-14T20:34:14.820Z,25.3
2018-06-14T20:35:04.880Z,25.3
2018-06-14T20:35:55.222Z,25.3
2018-06-14T20:36:45.015Z,25.3
2018-06-14T20:37:35.379Z,25.3
2018-06-14T20:38:25.456Z,25.3
2018-06-14T20:39:15.484Z,25.3
2018-06-14T20:40:05.545Z,25.3
2018-06-14T20:40:55.618Z,25.3
2018-06-14T20:41:45.780Z,25.3
2018-06-14T20:42:35.758Z,25.2
2018-06-14T20:43:25.800Z,25.3
2018-06-14T20:44:15.881Z,25.3
2018-06-14T20:45:05.941Z,25.3
2018-06-14T20:45:55.735Z,25.3
2018-06-14T20:46:46.077Z,25.3
2018-06-14T20:47:36.139Z,25.3
2018-06-14T20:48:25.940Z,25.3
2018-06-14T20:49:16.291Z,25.3
2018-06-14T20:50:06.351Z,25.3
2018-06-14T20:50:56.413Z,25.3
2018-06-14T20:51:46.701Z,25.3
2018-06-14T20:52:36.528Z,25.3
2018-06-14T20:53:26.602Z,25.3
2018-06-14T20:54:16.649Z,25.3
2018-06-14T20:55:06.717Z,25.3
2018-06-14T20:55:56.509Z,25.3
2018-06-14T20:56:46.859Z,25.3
2018-06-14T20:57:37.057Z,25.3
2018-06-14T20:58:27.015Z,25.3
2018-06-14T20:59:17.041Z,25.3
2018-06-14T21:00:07.112Z,25.3
2018-06-14T21:00:57.187Z,25.3
2018-06-14T21:01:47.253Z,25.3
2018-06-14T21:02:37.033Z,25.3
2018-06-14T21:03:27.360Z,25.4
2018-06-14T21:04:17.429Z,25.4
2018-06-14T21:05:07.782Z,25.3
2018-06-14T21:05:57.558Z,25.4
2018-06-14T21:06:47.623Z,25.4
2018-06-14T21:07:37.708Z,25.4
2018-06-14T21:08:27.754Z,25.4
2018-06-14T21:09:17.862Z,25.4
2018-06-14T21:10:07.606Z,25.4
2018-06-14T21:10:57.946Z,25.4
2018-06-14T21:11:48.023Z,25.4
2018-06-14T21:12:38.092Z,25.4
2018-06-14T21:13:28.155Z,25.4
2018-06-14T21:14:18.206Z,25.4
2018-06-14T21:15:08.270Z,25.4
2018-06-14T21:15:58.068Z,25.4
2018-06-14T21:16:48.404Z,25.4
2018-06-14T21:17:38.466Z,25.4
2018-06-14T21:18:28.250Z,25.4
2018-06-14T21:19:18.618Z,25.4
2018-06-14T21:20:08.676Z,25.4
2018-06-14T21:20:58.896Z,25.4
2018-06-14T21:21:48.788Z,25.4
2018-06-14T21:22:38.857Z,25.4
2018-06-14T21:23:28.925Z,25.4
2018-06-14T21:24:19.011Z,25.4
2018-06-14T21:25:08.771Z,25.4
2018-06-14T21:25:59.121Z,25.4
2018-06-14T21:26:49.186Z,25.4
2018-06-14T21:27:39.256Z,25.4
2018-06-14T21:28:29.305Z,25.4
2018-06-14T21:29:19.380Z,25.4
2018-06-14T21:30:09.447Z,25.4
2018-06-14T21:30:59.507Z,25.4
2018-06-14T21:31:49.290Z,25.4
2018-06-14T21:32:39.357Z,25.4
2018-06-14T21:33:29.699Z,25.4
2018-06-14T21:34:19.762Z,25.4
2018-06-14T21:35:09.836Z,25.4
2018-06-14T21:35:59.902Z,25.4
2018-06-14T21:36:49.983Z,25.4
2018-06-14T21:37:40.025Z,25.4
2018-06-14T21:38:30.100Z,25.4
2018-06-14T21:39:19.885Z,25.4
2018-06-14T21:40:10.243Z,25.4
2018-06-14T21:41:00.291Z,25.4
2018-06-14T21:41:50.351Z,25.4
2018-06-14T21:42:40.138Z,25.4
2018-06-14T21:43:30.496Z,25.4
2018-06-14T21:44:20.277Z,25.4
2018-06-14T21:45:10.634Z,25.4
2018-06-14T21:46:00.670Z,25.4
2018-06-14T21:46:50.465Z,25.4
2018-06-14T21:47:40.827Z,25.4
2018-06-14T21:48:30.583Z,25.4
2018-06-14T21:49:20.929Z,25.5
2018-06-14T21:50:11.008Z,25.4
2018-06-14T21:51:00.784Z,25.4
2018-06-14T21:51:50.866Z,25.4
2018-06-14T21:52:41.209Z,25.5
2018-06-14T21:53:31.273Z,25.4
2018-06-14T21:54:21.327Z,25.4
2018-06-14T21:55:11.385Z,25.4
2018-06-14T21:56:01.453Z,25.5
2018-06-14T21:56:51.542Z,25.5
2018-06-14T21:57:41.589Z,25.5
2018-06-14T21:58:31.655Z,25.4
2018-06-14T21:59:21.729Z,25.5
2018-06-14T22:00:11.779Z,25.5
2018-06-14T22:01:01.846Z,25.4
2018-06-14T22:01:51.918Z,25.5
2018-06-14T22:02:41.971Z,25.5
2018-06-14T22:03:32.051Z,25.5
2018-06-14T22:04:22.113Z,25.5
2018-06-14T22:05:12.171Z,25.5
2018-06-14T22:06:02.286Z,25.5
2018-06-14T22:06:52.298Z,25.5
2018-06-14T22:07:42.373Z,25.4
2018-06-14T22:08:32.427Z,25.5
2018-06-14T22:09:22.492Z,25.5
2018-06-14T22:10:12.555Z,25.5
2018-06-14T22:11:02.620Z,25.5
2018-06-14T22:11:52.696Z,25.5
2018-06-14T22:12:42.745Z,25.5
2018-06-14T22:13:32.816Z,25.5
2018-06-14T22:14:22.601Z,25.5
2018-06-14T22:15:12.961Z,25.5
2018-06-14T22:16:03.035Z,25.5
2018-06-14T22:16:52.796Z,25.5
2018-06-14T22:17:42.865Z,25.5
2018-06-14T22:18:33.214Z,25.5
2018-06-14T22:19:23.282Z,25.5
2018-06-14T22:20:13.055Z,25.5
2018-06-14T22:21:03.409Z,25.5
2018-06-14T22:21:53.522Z,25.5
2018-06-14T22:22:43.257Z,25.5
2018-06-14T22:23:33.593Z,25.5
2018-06-14T22:24:23.652Z,25.5
2018-06-14T22:25:13.722Z,25.5
2018-06-14T22:26:03.794Z,25.5
2018-06-14T22:26:53.570Z,25.5
2018-06-14T22:27:43.914Z,25.5
2018-06-14T22:28:33.977Z,25.5
2018-06-14T22:29:24.059Z,25.5
2018-06-14T22:30:14.109Z,25.5
2018-06-14T22:31:04.176Z,25.5
2018-06-14T22:31:54.252Z,25.5
2018-06-14T22:32:44.308Z,25.5
2018-06-14T22:33:34.366Z,25.5
2018-06-14T22:34:24.433Z,25.5
2018-06-14T22:35:14.493Z,25.5
2018-06-14T22:36:04.587Z,25.5
2018-06-14T22:36:54.360Z,25.5
2018-06-14T22:37:44.687Z,25.5
2018-06-14T22:38:34.751Z,25.5
2018-06-14T22:39:24.824Z,25.5
2018-06-14T22:40:14.613Z,25.5
2018-06-14T22:41:04.675Z,25.5
2018-06-14T22:41:55.052Z,25.5
2018-06-14T22:42:44.815Z,25.5
2018-06-14T22:43:35.144Z,25.5
2018-06-14T22:44:25.148Z,25.5
2018-06-14T22:45:15.269Z,25.5
2018-06-14T22:46:05.359Z,25.5
2018-06-14T22:46:55.405Z,25.5
2018-06-14T22:47:45.471Z,25.5
2018-06-14T22:48:34.969Z,25.5
2018-06-14T22:49:25.601Z,25.5
2018-06-14T22:50:15.677Z,25.5
2018-06-14T22:51:05.749Z,25.5
2018-06-14T22:51:55.796Z,25.6
2018-06-14T22:52:45.860Z,25.5
2018-06-14T22:53:35.656Z,25.5
2018-06-14T22:54:25.991Z,25.6
2018-06-14T22:55:15.785Z,25.5
2018-06-14T22:56:06.139Z,25.5
2018-06-14T22:56:56.184Z,25.5
2018-06-14T22:57:46.262Z,25.6
2018-06-14T22:58:36.305Z,25.6
2018-06-14T22:59:26.369Z,25.5
2018-06-14T23:00:16.454Z,25.5
2018-06-14T23:01:06.495Z,25.5
2018-06-14T23:01:56.589Z,25.5
2018-06-14T23:02:46.637Z,25.5
2018-06-14T23:03:36.696Z,25.5
2018-06-14T23:04:26.780Z,25.4
2018-06-14T23:05:16.817Z,25.4
2018-06-14T23:06:06.940Z,25.4
2018-06-14T23:06:56.960Z,25.4
2018-06-14T23:07:47.016Z,25.4
2018-06-14T23:08:37.087Z,25.4
2018-06-14T23:09:27.159Z,25.3
2018-06-14T23:10:16.927Z,25.4
2018-06-14T23:11:07.313Z,25.3
2018-06-14T23:11:57.361Z,25.3
2018-06-14T23:12:47.139Z,25.3
2018-06-14T23:13:37.476Z,25.3
2018-06-14T23:14:27.268Z,25.3
2018-06-14T23:15:17.612Z,25.3
2018-06-14T23:16:07.388Z,25.3
2018-06-14T23:16:57.736Z,25.3
2018-06-14T23:17:47.798Z,25.2
2018-06-14T23:18:37.855Z,25.2
2018-06-14T23:19:27.935Z,25.2
2018-06-14T23:20:17.988Z,25.2
2018-06-14T23:21:08.073Z,25.2
2018-06-14T23:21:57.844Z,25.2
2018-06-14T23:22:47.900Z,25.1
2018-06-14T23:23:38.256Z,25.1
2018-06-14T23:24:28.334Z,25.1
2018-06-14T23:25:18.375Z,25.1
2018-06-14T23:26:08.167Z,25.1
2018-06-14T23:26:58.550Z,25.1
2018-06-14T23:27:48.591Z,25.1
2018-06-14T23:28:38.641Z,25.1
2018-06-14T23:29:28.703Z,25.1
2018-06-14T23:30:18.767Z,25.1
2018-06-14T23:31:08.835Z,25.1
2018-06-14T23:31:58.892Z,25.1
2018-06-14T23:32:48.485Z,25.1
2018-06-14T23:33:39.031Z,25
2018-06-14T23:34:29.088Z,25
2018-06-14T23:35:19.155Z,25
2018-06-14T23:36:09.235Z,25
2018-06-14T23:36:59.300Z,25
2018-06-14T23:37:49.352Z,25
2018-06-14T23:38:39.413Z,24.9
2018-06-14T23:39:29.199Z,24.9
2018-06-14T23:40:19.540Z,24.9
2018-06-14T23:41:09.323Z,24.9
2018-06-14T23:41:59.107Z,24.9
2018-06-14T23:42:49.453Z,24.9
2018-06-14T23:43:39.800Z,24.9
2018-06-14T23:44:29.879Z,24.9
2018-06-14T23:45:19.925Z,24.9
2018-06-14T23:46:10.009Z,24.9
2018-06-14T23:47:00.070Z,24.9
2018-06-14T23:47:49.841Z,24.9
2018-06-14T23:48:40.180Z,24.9
2018-06-14T23:49:30.247Z,24.9
2018-06-14T23:50:20.326Z,24.9
2018-06-14T23:51:10.377Z,24.8
2018-06-14T23:52:00.437Z,24.8
2018-06-14T23:52:50.232Z,24.8
2018-06-14T23:53:40.294Z,24.8
2018-06-14T23:54:30.650Z,24.8
2018-06-14T23:55:20.435Z,24.8
2018-06-14T23:56:10.793Z,24.8
2018-06-14T23:57:00.830Z,24.8
2018-06-14T23:57:50.613Z,24.8
2018-06-14T23:58:40.986Z,24.8
2018-06-14T23:59:31.027Z,24.8
